Time;durP1;ratioP1;P1;durP2;ratioP2;P2;SDS_P1;SDS_P2;PMS_P1;PMS_P2;Temp;Humidity;BMP_temperature;BMP_pressure;BME280_temperature;BME280_humidity;BME280_pressure;Samples;Min_cycle;Max_cycle;Signal;HPM_P1;HPM_P2
2022/05/02 00:01:45;;;;;;;13.02;9.45;;;;;;;;;;5094785;28;20036;-43
2022/05/02 00:04:11;;;;;;;11.40;9.88;;;;;;;;;;5093729;28;20040;-43
2022/05/02 00:06:37;;;;;;;13.75;9.82;;;;;;;;;;5093556;28;20615;-47
2022/05/02 00:09:03;;;;;;;13.98;10.93;;;;;;;;;;5094139;28;20046;-43
2022/05/02 00:11:29;;;;;;;13.88;10.82;;;;;;;;;;5092984;28;20039;-42
2022/05/02 00:13:55;;;;;;;12.50;9.73;;;;;;;;;;5093769;28;20131;-46
2022/05/02 00:16:21;;;;;;;12.88;10.20;;;;;;;;;;5093156;28;20392;-43
2022/05/02 00:18:49;;;;;;;13.02;10.65;;;2.60;99.90;;;;;;5093513;28;20046;-44
2022/05/02 00:21:17;;;;;;;14.15;10.60;;;2.50;99.90;;;;;;5092998;28;20045;-43
2022/05/02 00:23:43;;;;;;;14.10;9.80;;;;;;;;;;5092397;28;20043;-44
2022/05/02 00:26:09;;;;;;;14.25;11.40;;;;;;;;;;5092838;28;20064;-43
2022/05/02 00:28:36;;;;;;;14.02;11.15;;;2.50;99.90;;;;;;5093772;28;20039;-44
2022/05/02 00:31:03;;;;;;;12.80;10.30;;;;;;;;;;5093480;28;20583;-43
2022/05/02 00:33:30;;;;;;;12.38;10.23;;;;;;;;;;5093454;28;20542;-43
2022/05/02 00:35:56;;;;;;;14.15;11.23;;;;;;;;;;5093533;28;20039;-44
2022/05/02 00:38:22;;;;;;;14.60;11.00;;;;;;;;;;5092527;28;20047;-43
2022/05/02 00:40:48;;;;;;;16.73;12.65;;;;;;;;;;5093220;28;20151;-46
2022/05/02 00:43:17;;;;;;;15.25;11.20;;;2.40;99.90;;;;;;5092484;28;20051;-43
2022/05/02 00:45:43;;;;;;;13.45;10.40;;;;;;;;;;5092578;28;20039;-43
2022/05/02 00:48:09;;;;;;;15.80;11.23;;;;;;;;;;5091819;28;20043;-42
2022/05/02 00:50:37;;;;;;;12.27;10.05;;;2.30;99.90;;;;;;5093694;28;20583;-42
2022/05/02 00:53:08;;;;;;;13.30;10.98;;;2.40;99.90;;;;;;5093320;28;20051;-43
2022/05/02 00:55:35;;;;;;;14.82;10.60;;;;;;;;;;5094127;28;20467;-44
2022/05/02 00:58:02;;;;;;;13.40;10.82;;;2.20;99.90;;;;;;5093113;28;20508;-45
2022/05/02 01:00:35;;;;;;;13.00;9.82;;;2.20;99.90;;;;;;5093736;28;20031;-42
2022/05/02 01:03:02;;;;;;;14.25;10.38;;;2.20;99.90;;;;;;5093296;28;20048;-42
2022/05/02 01:05:28;;;;;;;15.48;10.75;;;;;;;;;;5093555;28;20043;-41
2022/05/02 01:07:58;;;;;;;15.57;12.00;;;2.20;99.90;;;;;;5094312;28;20040;-46
2022/05/02 01:10:26;;;;;;;14.38;10.32;;;2.10;99.90;;;;;;5092837;28;20039;-43
2022/05/02 01:12:52;;;;;;;12.70;10.07;;;;;;;;;;5093314;28;20078;-43
2022/05/02 01:15:18;;;;;;;15.30;10.73;;;;;;;;;;5092597;28;20472;-46
2022/05/02 01:17:45;;;;;;;13.00;10.25;;;;;;;;;;5093347;28;20040;-44
2022/05/02 01:20:12;;;;;;;13.02;9.38;;;2.00;99.90;;;;;;5093584;28;20168;-43
2022/05/02 01:22:38;;;;;;;15.20;9.77;;;2.00;99.90;;;;;;5092732;28;20448;-46
2022/05/02 01:25:04;;;;;;;12.93;10.35;;;;;;;;;;5092453;28;20072;-46
2022/05/02 01:27:30;;;;;;;12.75;10.30;;;;;;;;;;5092743;28;20039;-45
2022/05/02 01:29:56;;;;;;;12.75;10.23;;;;;;;;;;5092556;28;20039;-42
2022/05/02 01:32:24;;;;;;;13.07;9.63;;;2.20;99.90;;;;;;5096634;28;20031;-42
2022/05/02 01:34:50;;;;;;;10.40;9.00;;;;;;;;;;5095678;28;20079;-43
2022/05/02 01:37:15;;;;;;;12.27;9.70;;;2.10;99.90;;;;;;5095958;28;20051;-46
2022/05/02 01:39:42;;;;;;;11.52;9.10;;;;;;;;;;5096690;28;20031;-46
2022/05/02 01:42:10;;;;;;;10.88;8.95;;;2.00;99.90;;;;;;5096449;28;20043;-45
2022/05/02 01:44:36;;;;;;;11.68;9.05;;;;;;;;;;5095006;28;20151;-45
2022/05/02 01:47:03;;;;;;;11.25;8.70;;;2.00;99.90;;;;;;5095900;28;20122;-44
2022/05/02 01:49:31;;;;;;;15.30;8.90;;;2.20;99.90;;;;;;5095492;28;20139;-45
2022/05/02 01:51:58;;;;;;;9.48;7.70;;;2.00;99.90;;;;;;5097034;28;20142;-41
2022/05/02 01:54:24;;;;;;;11.32;8.43;;;2.10;99.90;;;;;;5094949;28;20039;-44
2022/05/02 01:56:53;;;;;;;15.40;9.95;;;2.10;99.90;;;;;;5093291;28;20836;-47
2022/05/02 01:59:19;;;;;;;13.05;9.15;;;;;;;;;;5096170;28;20534;-44
2022/05/02 02:01:45;;;;;;;10.90;8.68;;;;;;;;;;5096842;28;20058;-45
2022/05/02 02:06:57;;;;;;;12.60;10.55;;;;;;;;;;5095472;28;20043;-47
2022/05/02 02:09:23;;;;;;;14.27;11.32;;;;;;;;;;5096919;28;20558;-47
2022/05/02 02:11:49;;;;;;;17.70;11.38;;;;;;;;;;5096071;28;20047;-42
2022/05/02 02:14:15;;;;;;;13.48;10.10;;;;;;;;;;5094973;28;20039;-44
2022/05/02 02:16:42;;;;;;;11.73;9.55;;;2.00;99.90;;;;;;5095823;28;20040;-47
2022/05/02 02:19:08;;;;;;;12.45;9.50;;;;;;;;;;5095527;28;20986;-44
2022/05/02 02:21:35;;;;;;;12.80;9.43;;;;;;;;;;5096889;28;20047;-46
2022/05/02 02:24:03;;;;;;;11.88;9.60;;;2.10;99.90;;;;;;5095768;28;20040;-45
2022/05/02 02:26:29;;;;;;;13.20;10.00;;;;;;;;;;5096158;28;20046;-45
2022/05/02 02:28:55;;;;;;;14.18;9.90;;;;;;;;;;5095567;28;21899;-41
2022/05/02 02:31:21;;;;;;;14.18;9.25;;;;;;;;;;5095432;28;20047;-45
2022/05/02 02:33:47;;;;;;;12.65;10.13;;;;;;;;;;5096447;28;20086;-48
2022/05/02 02:36:13;;;;;;;12.63;8.88;;;;;;;;;;5093888;28;20052;-45
2022/05/02 02:38:39;;;;;;;13.35;9.43;;;;;;;;;;5095219;28;20039;-47
2022/05/02 02:41:05;;;;;;;11.38;8.50;;;;;;;;;;5095329;28;20058;-44
2022/05/02 02:43:33;;;;;;;10.73;6.82;;;2.10;99.90;;;;;;5094965;28;20048;-44
2022/05/02 02:45:59;;;;;;;7.63;5.53;;;;;;;;;;5094873;28;20641;-44
2022/05/02 02:48:25;;;;;;;9.18;6.57;;;;;;;;;;5094723;28;20035;-45
2022/05/02 02:50:52;;;;;;;9.68;6.25;;;2.10;99.90;;;;;;5095558;28;20050;-48
2022/05/02 02:53:18;;;;;;;7.65;5.72;;;;;;;;;;5095213;28;20047;-46
2022/05/02 02:55:45;;;;;;;7.57;5.60;;;;;;;;;;5094180;28;20441;-43
2022/05/02 02:58:11;;;;;;;7.15;5.53;;;;;;;;;;5093953;28;20118;-47
2022/05/02 03:00:37;;;;;;;6.53;5.38;;;;;;;;;;5093690;28;20070;-47
2022/05/02 03:03:03;;;;;;;7.03;5.22;;;1.80;99.90;;;;;;5095865;28;20423;-43
2022/05/02 03:08:14;;;;;;;7.85;6.10;;;;;;;;;;5093741;28;20051;-47
2022/05/02 03:10:40;;;;;;;8.77;6.63;;;;;;;;;;5094437;28;20061;-44
2022/05/02 03:13:07;;;;;;;7.97;5.93;;;;;;;;;;5094216;28;20050;-48
2022/05/02 03:15:34;;;;;;;9.32;6.85;;;1.60;99.90;;;;;;5094297;28;20560;-47
2022/05/02 03:18:00;;;;;;;10.57;7.05;;;;;;;;;;5093629;28;20035;-42
2022/05/02 03:20:26;;;;;;;12.27;6.40;;;;;;;;;;5094518;28;20040;-42
2022/05/02 03:22:56;;;;;;;7.88;6.22;;;1.70;99.90;;;;;;5094266;28;20047;-42
2022/05/02 03:25:22;;;;;;;10.80;6.80;;;;;;;;;;5093686;28;21141;-42
2022/05/02 03:27:48;;;;;;;8.93;6.63;;;;;;;;;;5094978;28;20048;-42
2022/05/02 03:30:14;;;;;;;10.52;6.78;;;;;;;;;;5094190;28;20313;-42
2022/05/02 03:32:40;;;;;;;10.10;6.60;;;;;;;;;;5094907;28;20044;-48
2022/05/02 03:35:06;;;;;;;7.20;5.53;;;1.80;99.90;;;;;;5094752;28;20049;-42
2022/05/02 03:37:33;;;;;;;10.35;7.28;;;;;;;;;;5093670;28;20058;-43
2022/05/02 03:39:59;;;;;;;8.50;5.50;;;;;;;;;;5094365;28;20043;-43
2022/05/02 03:42:25;;;;;;;7.05;5.28;;;;;;;;;;5093683;28;20036;-43
2022/05/02 03:44:52;;;;;;;11.27;5.35;;;1.80;99.90;;;;;;5094202;28;20067;-44
2022/05/02 03:47:20;;;;;;;8.43;6.25;;;1.90;99.90;;;;;;5093091;28;20084;-44
2022/05/02 03:49:46;;;;;;;8.60;6.03;;;;;;;;;;5094817;28;21039;-42
2022/05/02 03:52:12;;;;;;;9.98;6.93;;;;;;;;;;5094324;28;20461;-42
2022/05/02 03:54:41;;;;;;;11.30;6.40;;;1.70;99.90;;;;;;5093821;28;20496;-43
2022/05/02 03:57:08;;;;;;;8.13;5.55;;;;;;;;;;5092691;28;20051;-42
2022/05/02 03:59:34;;;;;;;7.68;4.80;;;;;;;;;;5094159;28;20051;-44
2022/05/02 04:02:00;;;;;;;7.10;4.70;;;;;;;;;;5093227;28;20125;-42
2022/05/02 04:04:26;;;;;;;8.73;5.03;;;;;;;;;;5094097;28;20050;-47
2022/05/02 04:06:52;;;;;;;6.20;4.35;;;;;;;;;;5092549;28;20112;-43
2022/05/02 04:09:18;;;;;;;7.03;4.40;;;;;;;;;;5093624;28;20508;-43
2022/05/02 04:11:44;;;;;;;7.97;4.90;;;;;;;;;;5093037;28;20518;-42
2022/05/02 04:14:10;;;;;;;6.45;4.43;;;;;;;;;;5092716;28;20070;-44
2022/05/02 04:16:36;;;;;;;8.18;5.03;;;;;;;;;;5092966;28;20134;-43
2022/05/02 04:19:04;;;;;;;11.55;4.97;;;1.70;99.90;;;;;;5093432;28;20801;-42
2022/05/02 04:21:30;;;;;;;8.93;4.85;;;;;;;;;;5093024;28;20530;-44
2022/05/02 04:23:56;;;;;;;7.10;4.10;;;;;;;;;;5093830;28;20044;-43
2022/05/02 04:26:25;;;;;;;6.43;4.75;;;1.80;99.90;;;;;;5092769;28;20039;-44
2022/05/02 04:28:52;;;;;;;7.55;4.60;;;;;;;;;;5092906;28;20108;-43
2022/05/02 04:31:18;;;;;;;7.85;5.25;;;;;;;;;;5092598;28;20048;-43
2022/05/02 04:33:45;;;;;;;7.07;4.70;;;2.10;99.90;;;;;;5092676;28;20035;-44
2022/05/02 04:36:11;;;;;;;6.60;5.00;;;;;;;;;;5091733;28;20455;-44
2022/05/02 04:38:37;;;;;;;7.80;4.75;;;;;;;;;;5093669;28;20758;-43
2022/05/02 04:41:04;;;;;;;7.75;5.20;;;;;;;;;;5093165;28;20043;-44
2022/05/02 04:43:30;;;;;;;18.40;6.50;;;;;;;;;;5093057;28;20087;-43
2022/05/02 04:45:56;;;;;;;16.05;7.30;;;;;;;;;;5093576;28;20051;-43
2022/05/02 04:48:22;;;;;;;11.10;6.97;;;;;;;;;;5092846;28;20050;-43
2022/05/02 04:50:48;;;;;;;19.83;8.05;;;;;;;;;;5093064;28;20046;-45
2022/05/02 04:53:14;;;;;;;19.60;8.55;;;;;;;;;;5094428;28;20056;-45
2022/05/02 04:55:40;;;;;;;10.98;7.60;;;;;;;;;;5092637;28;20096;-45
2022/05/02 04:58:06;;;;;;;9.70;8.10;;;;;;;;;;5093206;28;20040;-47
2022/05/02 05:00:34;;;;;;;9.85;7.50;;;2.60;99.90;;;;;;5093081;28;20040;-47
2022/05/02 05:03:00;;;;;;;10.43;7.50;;;;;;;;;;5091917;28;20036;-43
2022/05/02 05:05:26;;;;;;;8.60;6.82;;;;;;;;;;5094620;28;20109;-49
2022/05/02 05:07:56;;;;;;;8.05;6.63;;;3.60;99.90;;;;;;5095040;28;20480;-48
2022/05/02 05:10:22;;;;;;;8.05;6.45;;;;;;;;;;5093895;28;20043;-49
2022/05/02 05:13:06;;;;;;;11.10;6.70;;;4.00;99.90;;;;;;5097580;28;20549;-47
2022/05/02 05:19:06;;;;;;;8.02;6.95;;;4.30;99.90;;;;;;5097270;28;20629;-44
2022/05/02 05:21:58;;;;;;;12.00;9.35;;;4.40;99.90;;;;;;5095913;28;20118;-44
2022/05/02 05:25:06;;;;;;;10.95;8.65;;;4.70;99.90;;;;;;5093774;28;20036;-44
2022/05/02 05:27:32;;;;;;;12.45;10.55;;;;;;;;;;5031828;28;20044;-45
2022/05/02 05:30:06;;;;;;;11.90;9.10;;;5.30;99.90;;;;;;5032946;28;20122;-45
2022/05/02 05:33:11;;;;;;;13.40;10.13;;;5.50;99.90;;;;;;5032554;28;20571;-44
2022/05/02 05:36:07;;;;;;;14.32;11.30;;;5.60;99.90;;;;;;5032680;28;20053;-45
2022/05/02 05:38:49;;;;;;;13.18;10.57;;;6.10;99.90;;;;;;5032924;28;20714;-45
2022/05/02 05:41:21;;;;;;;;;;;6.00;99.90;;;;;;5034112;28;20154;-46
2022/05/02 05:44:14;;;;;;;14.57;10.63;;;6.50;99.90;;;;;;5033973;28;20077;-45
2022/05/02 05:47:19;;;;;;;16.02;12.05;;;6.70;99.90;;;;;;4974872;28;20045;-44
2022/05/02 05:50:04;;;;;;;18.45;12.63;;;7.00;99.90;;;;;;4975622;28;20050;-47
2022/05/02 05:52:50;;;;;;;15.10;12.18;;;7.70;99.90;;;;;;4973953;28;20050;-44
2022/05/02 05:55:22;;;;;;;12.52;11.15;;;7.70;99.90;;;;;;4974690;28;20121;-43
2022/05/02 05:58:08;;;;;;;12.57;9.57;;;6.70;99.90;;;;;;4975424;28;20526;-42
2022/05/02 06:00:44;;;;;;;12.90;9.60;;;9.10;99.90;;;;;;4976301;28;20895;-42
2022/05/02 06:03:21;;;;;;;14.48;9.52;;;9.80;99.90;;;;;;4976344;28;20442;-43
2022/05/02 06:05:49;;;;;;;11.82;9.65;;;10.60;99.90;;;;;;5033933;28;20516;-42
2022/05/02 06:08:22;;;;;;;15.55;8.90;;;11.50;99.90;;;;;;5033328;28;20091;-43
2022/05/02 06:10:51;;;;;;;12.63;9.18;;;13.70;99.90;;;;;;5033907;28;20075;-43
2022/05/02 06:13:19;;;;;;;13.80;8.93;;;13.10;99.90;;;;;;5034019;28;20045;-46
2022/05/02 06:18:36;;;;;;;14.73;8.02;;;13.30;99.90;;;;;;5031699;28;20449;-45
2022/05/02 06:21:05;;;;;;;15.35;8.60;;;14.20;99.90;;;;;;5031825;28;20104;-48
2022/05/02 06:23:42;;;;;;;11.35;7.88;;;13.60;99.90;;;;;;5058646;28;20056;-49
2022/05/02 06:26:09;;;;;;;14.82;8.45;;;13.90;99.90;;;;;;5093854;28;20083;-47
2022/05/02 06:28:43;;;;;;;13.73;7.95;;;14.70;99.90;;;;;;5093690;28;20552;-50
2022/05/02 06:31:16;;;;;;;13.32;7.00;;;14.20;99.90;;;;;;5092887;28;20035;-50
2022/05/02 06:33:44;;;;;;;11.50;7.00;;;14.30;99.90;;;;;;5094658;28;20415;-48
2022/05/02 06:36:37;;;;;;;8.65;6.20;;;16.00;99.90;;;;;;5094136;28;20036;-51
2022/05/02 06:39:10;;;;;;;10.48;6.63;;;14.90;99.90;;;;;;5095369;28;20078;-50
2022/05/02 06:42:06;;;;;;;11.13;7.07;;;15.00;99.90;;;;;;5094714;28;20205;-50
2022/05/02 06:45:01;;;;;;;9.43;5.68;;;15.20;99.90;;;;;;5094281;28;20082;-49
2022/05/02 06:47:55;;;;;;;10.63;5.47;;;15.80;99.90;;;;;;5093818;28;20076;-52
2022/05/02 06:50:24;;;;;;;9.60;5.32;;;16.90;99.90;;;;;;5093454;28;20278;-51
2022/05/02 06:53:07;;;;;;;7.88;5.10;;;17.80;99.90;;;;;;5094663;28;20039;-51
2022/05/02 06:55:47;;;;;;;7.65;5.07;;;18.50;99.90;;;;;;5094597;28;20110;-45
2022/05/02 06:58:35;;;;;;;9.15;4.22;;;19.10;99.90;;;;;;5094692;28;20079;-46
2022/05/02 07:01:19;;;;;;;760.35;660.17;;;19.40;99.90;;;;;;5093592;28;20052;-47
2022/05/02 07:04:03;;;;;;;551.35;503.08;;;19.90;99.90;;;;;;5094949;28;20053;-47
2022/05/02 07:06:55;;;;;;;7.80;4.60;;;20.80;99.60;;;;;;5094519;28;20118;-46
2022/05/02 07:10:02;;;;;;;9.35;4.95;;;20.80;97.80;;;;;;5095670;28;20044;-48
2022/05/02 07:12:31;;;;;;;7.82;4.50;;;21.00;96.60;;;;;;5094513;28;20626;-52
2022/05/02 07:15:16;;;;;;;8.52;4.47;;;21.50;97.50;;;;;;5093410;28;20051;-50
2022/05/02 07:18:08;;;;;;;8.35;3.92;;;21.70;95.60;;;;;;5093212;28;20067;-46
2022/05/02 07:20:52;;;;;;;10.52;4.75;;;22.40;94.00;;;;;;5093650;28;20084;-48
2022/05/02 07:23:49;;;;;;;7.97;4.60;;;22.50;91.90;;;;;;5094756;28;20128;-48
2022/05/02 07:26:18;;;;;;;11.65;5.15;;;22.40;90.90;;;;;;5094496;28;21340;-54
2022/05/02 07:28:48;;;;;;;8.15;4.63;;;22.50;92.00;;;;;;5093954;28;20086;-53
2022/05/02 07:31:18;;;;;;;7.22;4.63;;;22.60;92.30;;;;;;5093911;28;20039;-53
2022/05/02 07:33:47;;;;;;;8.70;5.38;;;22.80;90.30;;;;;;5094761;28;20443;-53
2022/05/02 07:36:18;;;;;;;6.88;4.88;;;24.00;91.80;;;;;;5093827;28;20050;-53
2022/05/02 07:38:51;;;;;;;6.30;4.82;;;22.40;90.80;;;;;;5093892;28;20515;-50
2022/05/02 07:41:23;;;;;;;9.02;5.65;;;22.10;90.80;;;;;;5093472;28;20032;-52
2022/05/02 07:44:05;;;;;;;9.20;5.13;;;21.10;91.50;;;;;;5093449;28;20044;-49
2022/05/02 07:46:42;;;;;;;9.30;5.90;;;20.50;91.80;;;;;;5092801;28;20591;-50
2022/05/02 07:49:10;;;;;;;8.20;5.50;;;20.40;92.60;;;;;;5093736;28;20573;-49
2022/05/02 07:51:50;;;;;;;10.15;5.88;;;20.20;92.30;;;;;;5093341;28;20043;-48
2022/05/02 07:54:25;;;;;;;7.90;5.63;;;21.40;94.10;;;;;;5092732;28;20046;-51
2022/05/02 07:56:57;;;;;;;9.57;6.20;;;19.10;95.20;;;;;;5092791;28;20051;-50
2022/05/02 07:59:30;;;;;;;9.52;5.78;;;18.60;96.00;;;;;;5093842;28;20803;-46
2022/05/02 08:01:58;;;;;;;9.45;5.68;;;18.90;94.70;;;;;;5094082;28;20122;-46
2022/05/02 08:04:24;;;;;;;10.88;6.60;;;18.50;96.50;;;;;;5093630;28;20059;-48
2022/05/02 08:06:50;;;;;;;11.43;5.65;;;17.30;96.90;;;;;;5092400;28;20124;-45
2022/05/02 08:09:53;;;;;;;10.38;6.45;;;16.90;99.00;;;;;;5093240;28;20074;-48
2022/05/02 08:12:31;;;;;;;9.85;7.35;;;16.70;99.90;;;;;;5094087;28;20039;-46
2022/05/02 08:15:13;;;;;;;10.02;7.43;;;16.40;99.90;;;;;;5092997;28;20669;-45
2022/05/02 08:18:00;;;;;;;10.30;6.00;;;16.20;99.90;;;;;;5093851;28;20248;-45
2022/05/02 08:20:39;;;;;;;10.02;7.10;;;16.00;99.90;;;;;;5092465;28;20048;-45
2022/05/02 08:29:33;;;;;;;12.80;6.95;;;16.10;99.90;;;;;;5092988;28;20313;-48
2022/05/02 08:32:13;;;;;;;9.98;6.78;;;16.40;99.90;;;;;;5093040;28;20043;-49
2022/05/02 08:34:45;;;;;;;11.75;7.45;;;17.30;99.90;;;;;;5094434;28;20051;-45
2022/05/02 08:37:29;;;;;;;8.95;7.30;;;17.40;99.90;;;;;;5093822;28;20411;-45
2022/05/02 08:40:34;;;;;;;9.07;6.25;;;17.20;99.90;;;;;;5091830;28;20054;-45
2022/05/02 08:43:33;;;;;;;11.25;7.10;;;17.00;99.90;;;;;;5036661;28;20052;-45
2022/05/02 08:46:22;;;;;;;11.10;7.32;;;17.20;99.90;;;;;;5050080;28;20608;-49
2022/05/02 08:52:03;;;;;;;12.80;8.07;;;16.70;99.90;;;;;;5048560;28;21492;-45
2022/05/02 08:54:38;;;;;;;10.07;6.63;;;16.80;99.90;;;;;;5049653;28;21332;-45
2022/05/02 08:57:38;;;;;;;14.38;8.20;;;16.60;99.90;;;;;;5049604;28;20048;-49
2022/05/02 09:00:25;;;;;;;13.20;7.63;;;16.80;99.90;;;;;;4968793;28;20430;-43
2022/05/02 09:03:26;;;;;;;11.50;7.22;;;17.00;99.90;;;;;;4968947;28;20359;-45
2022/05/02 09:06:18;;;;;;;11.68;6.60;;;16.60;99.90;;;;;;4911242;29;20115;-46
2022/05/02 09:09:03;;;;;;;;;;;16.70;99.90;;;;;;4911593;29;20059;-44
2022/05/02 09:12:17;;;;;;;12.00;7.90;;;17.10;99.90;;;;;;4911334;29;20944;-45
2022/05/02 09:15:07;;;;;;;11.23;7.90;;;17.50;99.40;;;;;;4910842;29;20553;-47
2022/05/02 09:17:44;;;;;;;10.43;6.57;;;18.10;98.40;;;;;;4910579;29;20060;-45
2022/05/02 09:20:52;;;;;;;10.23;6.85;;;18.40;97.60;;;;;;4910992;29;20106;-47
2022/05/02 09:23:29;;;;;;;8.88;6.72;;;18.80;97.80;;;;;;4912366;29;20060;-47
2022/05/02 09:26:06;;;;;;;10.20;6.38;;;18.90;98.50;;;;;;4911496;29;20271;-49
2022/05/02 09:28:49;;;;;;;11.30;6.45;;;18.90;98.00;;;;;;4911979;29;20127;-45
2022/05/02 09:31:35;;;;;;;10.15;7.30;;;18.30;96.20;;;;;;4912041;29;20818;-48
2022/05/02 09:34:16;;;;;;;10.70;7.13;;;18.70;99.20;;;;;;4893480;29;20098;-49
2022/05/02 09:36:53;;;;;;;10.52;6.38;;;17.80;99.60;;;;;;4908661;28;20089;-44
2022/05/02 09:39:24;;;;;;;13.07;7.05;;;17.30;99.50;;;;;;4941633;28;20062;-47
2022/05/02 09:42:17;;;;;;;9.40;6.38;;;17.50;99.00;;;;;;4954031;28;20066;-45
2022/05/02 09:50:39;;;;;;;12.65;5.57;;;17.30;96.50;;;;;;4969620;28;20497;-47
2022/05/02 09:53:14;;;;;;;7.78;5.45;;;18.30;99.20;;;;;;4977749;28;20056;-49
2022/05/02 09:59:08;;;;;;;12.15;7.15;;;17.80;97.70;;;;;;5016896;28;20355;-47
2022/05/02 10:01:40;;;;;;;12.05;7.18;;;17.50;99.00;;;;;;5012397;28;20044;-49
2022/05/02 10:04:35;;;;;;;10.13;6.28;;;17.40;99.00;;;;;;5011863;28;20073;-48
2022/05/02 10:07:10;;;;;;;13.80;8.02;;;17.80;97.30;;;;;;5013848;28;20041;-46
2022/05/02 10:09:57;;;;;;;11.65;7.15;;;18.00;97.70;;;;;;5011648;28;20160;-45
2022/05/02 10:12:53;;;;;;;9.57;6.47;;;17.90;96.80;;;;;;5092984;28;21375;-47
2022/05/02 10:15:38;;;;;;;11.30;7.60;;;17.80;97.80;;;;;;5031847;28;20076;-46
2022/05/02 10:18:14;;;;;;;11.73;7.20;;;17.90;96.60;;;;;;5031866;28;20041;-45
2022/05/02 10:20:56;;;;;;;10.93;6.93;;;18.20;96.50;;;;;;5030882;28;20088;-47
2022/05/02 10:23:22;;;;;;;9.63;6.80;;;17.80;97.30;;;;;;5030621;28;21237;-49
2022/05/02 10:26:17;;;;;;;11.02;6.65;;;18.20;98.30;;;;;;5032129;28;20068;-50
2022/05/02 10:29:14;;;;;;;8.70;6.53;;;18.50;97.60;;;;;;5029573;28;20057;-50
2022/05/02 10:31:46;;;;;;;8.57;6.45;;;18.70;96.20;;;;;;5030918;28;20217;-48
2022/05/02 10:34:17;;;;;;;8.30;6.13;;;18.40;96.50;;;;;;5030158;28;20524;-45
2022/05/02 10:36:47;;;;;;;13.05;7.40;;;18.60;95.20;;;;;;5032119;28;20513;-49
2022/05/02 10:39:29;;;;;;;9.85;6.47;;;18.90;95.00;;;;;;5030745;28;20052;-46
2022/05/02 10:42:03;;;;;;;9.38;5.70;;;18.60;96.10;;;;;;5030743;28;20048;-48
2022/05/02 10:44:52;;;;;;;7.38;5.07;;;18.30;96.40;;;;;;5030329;28;20061;-49
2022/05/02 10:47:25;;;;;;;7.57;5.28;;;18.90;97.50;;;;;;5030862;28;20095;-49
2022/05/02 10:50:12;;;;;;;8.13;5.30;;;18.90;96.40;;;;;;5031245;28;20080;-48
2022/05/02 10:53:03;;;;;;;9.23;5.13;;;18.90;94.80;;;;;;5071965;28;20043;-49
2022/05/02 10:55:37;;;;;;;10.40;5.22;;;19.20;96.70;;;;;;5094461;28;20041;-48
2022/05/02 10:58:11;;;;;;;7.88;5.35;;;20.10;96.00;;;;;;5094855;28;20032;-45
2022/05/02 11:01:07;;;;;;;6.95;4.53;;;19.50;96.80;;;;;;5094579;28;20093;-48
2022/05/02 11:04:10;;;;;;;8.20;4.18;;;19.40;92.50;;;;;;5093474;28;20040;-47
2022/05/02 11:06:54;;;;;;;8.82;4.53;;;19.20;94.80;;;;;;5093731;28;20042;-50
2022/05/02 11:09:55;;;;;;;6.75;4.07;;;19.30;94.10;;;;;;5094205;28;20055;-46
2022/05/02 11:12:29;;;;;;;6.18;4.25;;;19.10;93.00;;;;;;5093370;28;20504;-49
2022/05/02 11:15:01;;;;;;;6.78;4.47;;;19.20;95.10;;;;;;5092907;28;20059;-46
2022/05/02 11:20:41;;;;;;;7.97;3.53;;;19.80;94.70;;;;;;5091651;28;20043;-48
2022/05/02 11:21:21;;;;;;;7.53;3.42;;;19.50;91.80;;;;;;5029847;28;20196;-46
2022/05/02 11:23:50;;;;;;;7.45;3.92;;;19.50;92.50;;;;;;5029976;28;20526;-49
2022/05/02 11:26:27;;;;;;;9.88;4.70;;;19.90;92.60;;;;;;5028954;28;20059;-45
2022/05/02 11:29:34;;;;;;;8.70;5.00;;;19.40;92.70;;;;;;5028555;28;20048;-46
2022/05/02 11:32:05;;;;;;;6.45;4.28;;;19.50;93.10;;;;;;5028962;28;20045;-45
2022/05/02 11:34:33;;;;;;;9.10;4.50;;;19.30;93.60;;;;;;5029287;28;20037;-47
2022/05/02 11:36:59;;;;;;;7.72;4.22;;;19.10;93.80;;;;;;5030907;28;20045;-45
2022/05/02 11:39:44;;;;;;;11.82;4.88;;;19.30;94.30;;;;;;5029898;28;20560;-44
2022/05/02 11:42:18;;;;;;;9.82;5.28;;;19.30;96.50;;;;;;5029171;28;20119;-45
2022/05/02 11:45:00;;;;;;;6.25;4.30;;;19.30;95.50;;;;;;5029975;28;20131;-45
2022/05/02 11:48:12;;;;;;;6.60;4.18;;;19.20;95.90;;;;;;5029519;28;20040;-46
2022/05/02 11:50:45;;;;;;;8.83;3.97;;;19.60;92.90;;;;;;4970437;28;21201;-45
2022/05/02 11:53:14;;;;;;;6.07;3.58;;;21.10;95.50;;;;;;4971524;28;20207;-44
2022/05/02 11:55:42;;;;;;;5.10;3.50;;;21.10;94.40;;;;;;4970449;28;20057;-46
2022/05/02 11:58:26;;;;;;;10.02;3.50;;;18.90;93.30;;;;;;5035738;28;20505;-47
2022/05/02 12:01:02;;;;;;;7.18;3.30;;;20.20;92.70;;;;;;5049917;28;20059;-45
2022/05/02 12:03:54;;;;;;;7.32;2.70;;;20.40;91.50;;;;;;5033152;28;20056;-46
2022/05/02 12:06:36;;;;;;;5.25;3.00;;;18.30;93.40;;;;;;5050296;28;20046;-44
2022/05/02 12:09:03;;;;;;;7.40;3.53;;;18.50;93.20;;;;;;5051105;28;20048;-44
2022/05/02 12:11:30;;;;;;;7.65;3.40;;;18.50;92.30;;;;;;5049917;28;20075;-47
2022/05/02 12:13:58;;;;;;;6.22;3.40;;;18.70;93.30;;;;;;5049552;28;20052;-49
2022/05/02 12:16:33;;;;;;;6.80;3.30;;;18.70;93.70;;;;;;5050033;28;20051;-45
2022/05/02 12:19:00;;;;;;;6.35;3.25;;;20.30;93.70;;;;;;5049847;28;20048;-48
2022/05/02 12:21:45;;;;;;;6.68;3.42;;;19.00;93.30;;;;;;5049852;28;20122;-44
2022/05/02 12:24:26;;;;;;;7.50;3.22;;;18.90;91.70;;;;;;5049858;28;20676;-49
2022/05/02 12:26:53;;;;;;;6.18;3.85;;;18.80;93.60;;;;;;5064024;28;20048;-45
2022/05/02 12:29:21;;;;;;;10.15;4.15;;;19.10;94.40;;;;;;5093570;28;20032;-46
2022/05/02 12:32:00;;;;;;;6.13;4.03;;;21.30;95.90;;;;;;5091893;28;20099;-48
2022/05/02 12:34:39;;;;;;;6.35;4.50;;;19.20;97.20;;;;;;5090723;28;20041;-46
2022/05/02 12:37:20;;;;;;;7.38;3.70;;;20.20;98.30;;;;;;5093857;28;20050;-47
2022/05/02 12:40:10;;;;;;;9.07;4.72;;;18.80;96.70;;;;;;5092866;28;20128;-46
2022/05/02 12:42:48;;;;;;;7.97;4.35;;;18.90;97.10;;;;;;5091790;28;20561;-48
2022/05/02 12:45:19;;;;;;;6.43;4.25;;;18.50;97.00;;;;;;5092578;28;20138;-50
2022/05/02 12:48:07;;;;;;;7.95;4.05;;;18.10;97.40;;;;;;5092155;28;20035;-46
2022/05/02 12:50:44;;;;;;;6.45;3.90;;;18.10;98.00;;;;;;5091258;28;20040;-48
2022/05/02 12:56:10;;;;;;;8.27;4.10;;;18.20;96.50;;;;;;5092089;28;20092;-46
2022/05/02 13:01:24;;;;;;;8.70;4.80;;;19.80;97.80;;;;;;5091925;28;20044;-47
2022/05/02 13:03:57;;;;;;;7.35;4.65;;;18.10;98.20;;;;;;5092203;28;20035;-46
2022/05/02 13:06:25;;;;;;;7.85;4.15;;;19.10;99.20;;;;;;5092147;28;20141;-48
2022/05/02 13:09:07;;;;;;;6.18;3.65;;;18.20;98.60;;;;;;5090707;28;20052;-47
2022/05/02 13:11:38;;;;;;;5.70;3.70;;;18.00;99.60;;;;;;5092048;28;20071;-45
2022/05/02 13:14:05;;;;;;;6.85;4.13;;;18.20;98.90;;;;;;5092457;28;20035;-47
2022/05/02 13:16:47;;;;;;;7.38;4.25;;;19.90;98.50;;;;;;5091616;28;20035;-49
2022/05/02 13:19:13;;;;;;;8.45;4.70;;;17.70;98.00;;;;;;5090392;28;20108;-46
2022/05/02 13:21:39;;;;;;;5.97;4.07;;;17.50;99.30;;;;;;5091712;28;20043;-48
2022/05/02 13:24:11;;;;;;;8.93;4.80;;;17.30;99.80;;;;;;5092917;28;20042;-49
2022/05/02 13:27:32;;;;;;;16.10;4.68;;;17.40;99.90;;;;;;5095160;28;20047;-47
2022/05/02 13:30:03;;;;;;;8.98;4.63;;;17.40;99.60;;;;;;4996329;28;20132;-45
2022/05/02 13:32:52;;;;;;;6.13;4.07;;;17.10;99.90;;;;;;4996540;28;20748;-46
2022/05/02 13:35:25;;;;;;;8.90;3.60;;;17.50;99.90;;;;;;4994979;28;20041;-46
2022/05/02 13:38:01;;;;;;;6.90;3.53;;;17.60;99.90;;;;;;4998485;28;20053;-47
2022/05/02 13:40:51;;;;;;;8.95;4.30;;;17.70;99.90;;;;;;4995993;28;20145;-48
2022/05/02 13:43:39;;;;;;;11.25;4.50;;;17.80;99.90;;;;;;4997584;28;20042;-44
2022/05/02 13:46:16;;;;;;;8.52;3.83;;;17.90;99.90;;;;;;4997562;28;20164;-47
2022/05/02 13:49:11;;;;;;;7.35;3.80;;;17.80;99.90;;;;;;4997076;28;20801;-46
2022/05/02 13:51:48;;;;;;;5.60;3.28;;;16.30;99.90;;;;;;4996745;28;20514;-46
2022/05/02 13:54:26;;;;;;;6.95;4.15;;;18.20;99.90;;;;;;4996298;28;20057;-49
2022/05/02 13:57:18;;;;;;;6.35;3.80;;;18.10;98.80;;;;;;4999073;28;20069;-45
2022/05/02 14:00:39;;;;;;;6.97;4.00;;;17.60;99.00;;;;;;4996476;28;20050;-46
2022/05/02 14:03:18;;;;;;;8.85;4.38;;;17.70;97.50;;;;;;4998132;28;20110;-48
2022/05/02 14:08:36;;;;;;;6.78;3.47;;;17.40;99.90;;;;;;5095437;28;20458;-45
2022/05/02 14:11:02;;;;;;;5.95;3.53;;;17.50;99.90;;;;;;5094760;28;20111;-45
2022/05/02 14:13:28;;;;;;;8.35;4.03;;;17.80;99.90;;;;;;5095944;28;20976;-47
2022/05/02 14:16:10;;;;;;;6.25;4.05;;;17.50;99.90;;;;;;5095723;28;20147;-44
2022/05/02 14:18:56;;;;;;;;;;;17.40;99.90;;;;;;5094086;28;20039;-48
2022/05/02 14:21:35;;;;;;;7.25;4.13;;;17.10;98.70;;;;;;5095187;28;19924;-45
2022/05/02 14:24:00;;;;;;;8.05;4.28;;;16.70;99.90;;;;;;5093913;28;20050;-43
2022/05/02 14:26:28;;;;;;;8.20;4.97;;;16.50;99.90;;;;;;5094776;28;20853;-43
2022/05/02 14:28:56;;;;;;;10.25;4.20;;;16.60;99.90;;;;;;5095166;28;20039;-44
2022/05/02 14:31:37;;;;;;;10.13;5.97;;;16.70;99.90;;;;;;5095791;28;20042;-45